CheckWX is a tool to help pilots better visualize weather data.  It is not intended as a substitute for an official pre-flight weather briefing.

18:45:08 UTC

SCAT TAF
Desierto de Atacama Airport
Copiapo, Chile
TAF SCAT 211617Z 2118/2218 24014KT CAVOK TX20/2118Z TN08/2206Z BECMG 2200/2202 18004KT BECMG 2204/2206 11007KT BECMG 2214/2216 24010KT

May-21@
18:00 UTC

May-21 @ 18:00 UTC

May-22@
00:00 UTC

May-22 @ 00:00 UTC

TAF SCAT 211617Z 2118/2218 24014KT CAVOK TX20/2118Z TN08/2206Z
Wind
  • 240° at 14 KTS
Cloud Levels
  • No significant clouds

May-22@
00:00 UTC

May-22 @ 00:00 UTC

May-22@
04:00 UTC

May-22 @ 04:00 UTC

BECMG 2200/2202 18004KT

Becoming

Becoming Conditions expected by Wed, May 22, 2019 @ 02:00 UTC

Wind
  • 180° at 4 KTS
Cloud Levels
  • No significant clouds

May-22@
04:00 UTC

May-22 @ 04:00 UTC

May-22@
14:00 UTC

May-22 @ 14:00 UTC

BECMG 2204/2206 11007KT

Becoming

Becoming Conditions expected by Wed, May 22, 2019 @ 06:00 UTC

Wind
  • 110° at 7 KTS
Cloud Levels
  • No significant clouds

May-22@
14:00 UTC

May-22 @ 14:00 UTC

May-22@
18:00 UTC

May-22 @ 18:00 UTC

BECMG 2214/2216 24010KT

Becoming

Becoming Conditions expected by Wed, May 22, 2019 @ 16:00 UTC

Wind
  • 240° at 10 KTS
Cloud Levels
  • No significant clouds